createdAt,value
2018-01-13T00:00:57.150Z,44.63
2018-01-13T00:03:23.726Z,45.22
2018-01-13T00:05:50.323Z,50.20
2018-01-13T00:08:16.908Z,46.60
2018-01-13T00:10:43.490Z,55.35
2018-01-13T00:13:10.079Z,43.83
2018-01-13T00:15:36.658Z,44.67
2018-01-13T00:18:03.262Z,43.58
2018-01-13T00:20:29.841Z,43.20
2018-01-13T00:22:56.427Z,47.47
2018-01-13T00:25:23.322Z,45.20
2018-01-13T00:27:50.059Z,38.85
2018-01-13T00:30:16.642Z,42.42
2018-01-13T00:32:43.322Z,41.10
2018-01-13T00:35:09.898Z,45.80
2018-01-13T00:37:36.484Z,36.25
2018-01-13T00:40:03.082Z,42.35
2018-01-13T00:42:29.666Z,44.92
2018-01-13T00:44:56.246Z,39.97
2018-01-13T00:47:22.830Z,44.75
2018-01-13T00:49:49.406Z,45.40
2018-01-13T00:52:16.019Z,42.35
2018-01-13T00:54:42.603Z,44.53
2018-01-13T00:57:09.178Z,43.05
2018-01-13T00:59:35.803Z,44.85
2018-01-13T01:02:02.375Z,42.40
2018-01-13T01:04:28.960Z,44.75
2018-01-13T01:06:55.551Z,40.00
2018-01-13T01:09:22.127Z,42.53
2018-01-13T01:11:48.718Z,47.05
2018-01-13T01:14:15.281Z,42.78
2018-01-13T01:16:42.076Z,46.13
2018-01-13T01:19:08.642Z,39.33
2018-01-13T01:21:35.235Z,43.38
2018-01-13T01:24:01.811Z,43.13
2018-01-13T01:26:28.390Z,42.67
2018-01-13T01:28:54.998Z,41.70
2018-01-13T01:31:21.571Z,46.67
2018-01-13T01:33:48.147Z,50.22
2018-01-13T01:36:14.752Z,46.17
2018-01-13T01:38:41.326Z,43.15
2018-01-13T01:41:07.902Z,44.90
2018-01-13T01:43:34.863Z,48.83
2018-01-13T01:46:01.443Z,43.92
2018-01-13T01:48:28.062Z,44.50
2018-01-13T01:50:54.646Z,42.25
2018-01-13T01:53:21.230Z,43.03
2018-01-13T01:55:47.826Z,42.42
2018-01-13T01:58:14.410Z,41.55
2018-01-13T02:00:41.091Z,45.83
2018-01-13T02:03:07.670Z,44.42
2018-01-13T02:05:34.258Z,38.20
2018-01-13T02:08:00.838Z,39.92
2018-01-13T02:10:27.424Z,48.50
2018-01-13T02:12:54.013Z,43.00
2018-01-13T02:15:20.599Z,42.78
2018-01-13T02:17:47.178Z,42.15
2018-01-13T02:20:13.764Z,43.58
2018-01-13T02:22:40.630Z,45.08
2018-01-13T02:25:07.217Z,45.83
2018-01-13T02:27:33.802Z,43.13
2018-01-13T02:30:00.402Z,39.40
2018-01-13T02:32:26.986Z,39.85
2018-01-13T02:34:53.566Z,46.33
2018-01-13T02:37:20.443Z,46.80
2018-01-13T02:39:47.024Z,45.70
2018-01-13T02:42:13.604Z,49.45
2018-01-13T02:44:40.464Z,50.03
2018-01-13T02:47:07.048Z,39.47
2018-01-13T02:49:33.627Z,43.45
2018-01-13T02:52:00.236Z,48.20
2018-01-13T02:54:26.815Z,50.75
2018-01-13T02:56:53.398Z,51.40
2018-01-13T02:59:20.000Z,49.53
2018-01-13T03:01:46.577Z,57.33
2018-01-13T03:04:13.152Z,51.00
2018-01-13T03:06:39.747Z,55.00
2018-01-13T03:09:06.318Z,48.45
2018-01-13T03:11:32.902Z,54.80
2018-01-13T03:13:59.499Z,57.08
2018-01-13T03:16:26.077Z,53.25
2018-01-13T03:18:52.666Z,66.50
2018-01-13T03:21:19.257Z,54.40
2018-01-13T03:23:45.838Z,55.92
2018-01-13T03:26:12.428Z,61.80
2018-01-13T03:28:39.011Z,64.68
2018-01-13T03:31:05.592Z,62.83
2018-01-13T03:33:32.186Z,56.50
2018-01-13T03:35:58.767Z,61.08
2018-01-13T03:38:25.343Z,71.72
2018-01-13T03:40:52.194Z,58.08
2018-01-13T03:43:18.777Z,61.95
2018-01-13T03:45:45.352Z,76.82
2018-01-13T03:48:11.965Z,69.22
2018-01-13T03:50:38.551Z,69.60
2018-01-13T03:53:05.126Z,66.55
2018-01-13T03:55:31.702Z,61.40
2018-01-13T03:57:58.287Z,54.25
2018-01-13T04:00:24.887Z,63.00
2018-01-13T04:02:51.468Z,70.70
2018-01-13T04:05:18.043Z,73.68
2018-01-13T04:07:44.662Z,69.03
2018-01-13T04:10:11.256Z,61.95
2018-01-13T04:12:37.835Z,68.25
2018-01-13T04:15:04.452Z,73.18
2018-01-13T04:17:31.041Z,65.80
2018-01-13T04:19:57.622Z,92.50
2018-01-13T04:22:24.226Z,71.18
2018-01-13T04:24:50.807Z,66.28
2018-01-13T04:27:17.393Z,75.45
2018-01-13T04:29:44.097Z,71.45
2018-01-13T04:32:10.672Z,73.70
2018-01-13T04:34:37.252Z,86.68
2018-01-13T04:37:04.074Z,84.32
2018-01-13T04:39:30.654Z,89.90
2018-01-13T04:41:57.240Z,79.55
2018-01-13T04:44:23.832Z,88.28
2018-01-13T04:46:50.428Z,104.72
2018-01-13T04:49:17.006Z,83.72
2018-01-13T04:51:43.626Z,96.20
2018-01-13T04:54:10.202Z,88.55
2018-01-13T04:56:36.782Z,89.40
2018-01-13T04:59:03.358Z,80.32
2018-01-13T05:01:29.976Z,92.80
2018-01-13T05:03:56.551Z,93.43
2018-01-13T05:06:23.130Z,85.25
2018-01-13T05:08:49.739Z,88.60
2018-01-13T05:11:16.309Z,87.30
2018-01-13T05:13:42.886Z,85.53
2018-01-13T05:16:09.474Z,95.75
2018-01-13T05:18:36.062Z,88.55
2018-01-13T05:21:02.642Z,84.00
2018-01-13T05:23:29.543Z,74.78
2018-01-13T05:25:56.123Z,90.95
2018-01-13T05:28:22.708Z,86.35
2018-01-13T05:30:49.286Z,85.65
2018-01-13T05:33:15.874Z,98.72
2018-01-13T05:35:42.501Z,102.15
2018-01-13T05:38:09.078Z,86.32
2018-01-13T05:40:35.661Z,98.53
2018-01-13T05:43:02.625Z,97.32
2018-01-13T05:45:29.210Z,104.57
2018-01-13T05:47:55.790Z,95.93
2018-01-13T05:50:22.402Z,88.40
2018-01-13T05:52:48.984Z,91.53
2018-01-13T05:55:15.560Z,92.43
2018-01-13T05:57:42.145Z,96.47
2018-01-13T06:00:08.714Z,97.53
2018-01-13T06:02:35.297Z,85.95
2018-01-13T06:05:01.896Z,94.13
2018-01-13T06:07:28.471Z,89.68
2018-01-13T06:09:55.052Z,98.35
2018-01-13T06:12:21.659Z,120.43
2018-01-13T06:14:48.239Z,102.80
2018-01-13T06:17:14.832Z,103.97
2018-01-13T06:19:41.414Z,96.43
2018-01-13T06:22:07.998Z,110.65
2018-01-13T06:24:34.702Z,87.30
2018-01-13T06:27:01.279Z,107.65
2018-01-13T06:29:27.855Z,95.70
2018-01-13T06:31:54.555Z,91.30
2018-01-13T06:34:21.127Z,96.80
2018-01-13T06:36:47.707Z,95.95
2018-01-13T06:39:14.359Z,92.70
2018-01-13T06:41:40.895Z,92.68
2018-01-13T06:44:07.471Z,93.45
2018-01-13T06:46:34.330Z,80.95
2018-01-13T06:49:00.907Z,75.32
2018-01-13T06:51:27.486Z,90.22
2018-01-13T06:53:54.077Z,115.37
2018-01-13T06:56:20.668Z,100.03
2018-01-13T06:58:47.284Z,110.20
2018-01-13T07:01:13.869Z,97.55
2018-01-13T07:03:40.439Z,99.70
2018-01-13T07:06:07.055Z,107.55
2018-01-13T07:08:33.679Z,108.22
2018-01-13T07:11:00.259Z,108.82
2018-01-13T07:13:26.962Z,112.05
2018-01-13T07:15:53.551Z,101.00
2018-01-13T07:18:20.130Z,113.53
2018-01-13T07:20:46.726Z,104.22
2018-01-13T07:23:13.317Z,108.80
2018-01-13T07:25:39.895Z,103.72
2018-01-13T07:28:06.842Z,91.82
2018-01-13T07:30:33.431Z,103.95
2018-01-13T07:33:00.023Z,105.75
2018-01-13T07:35:26.615Z,103.95
2018-01-13T07:37:53.183Z,99.95
2018-01-13T07:40:19.791Z,101.18
2018-01-13T07:42:46.371Z,105.15
2018-01-13T07:45:12.953Z,98.85
2018-01-13T07:47:39.563Z,103.00
2018-01-13T07:50:06.143Z,93.22
2018-01-13T07:52:32.728Z,81.65
2018-01-13T07:54:59.327Z,112.70
2018-01-13T07:57:25.910Z,96.68
2018-01-13T07:59:52.496Z,90.55
2018-01-13T08:02:19.118Z,110.28
2018-01-13T08:04:45.706Z,94.80
2018-01-13T08:07:12.292Z,93.97
2018-01-13T08:09:38.887Z,107.10
2018-01-13T08:12:05.470Z,91.22
2018-01-13T08:14:32.061Z,101.30
2018-01-13T08:16:58.668Z,93.65
2018-01-13T08:19:25.247Z,88.65
2018-01-13T08:21:51.831Z,96.22
2018-01-13T08:24:18.443Z,99.78
2018-01-13T08:26:45.024Z,89.60
2018-01-13T08:29:11.610Z,94.60
2018-01-13T08:31:38.211Z,81.87
2018-01-13T08:34:04.786Z,93.32
2018-01-13T08:36:31.363Z,80.97
2018-01-13T08:38:57.971Z,87.85
2018-01-13T08:41:24.543Z,91.05
2018-01-13T08:43:51.125Z,88.25
2018-01-13T08:46:17.970Z,96.57
2018-01-13T08:48:44.559Z,77.50
2018-01-13T08:51:11.147Z,79.50
2018-01-13T08:53:37.771Z,78.28
2018-01-13T08:56:04.715Z,92.47
2018-01-13T08:58:31.286Z,86.53
2018-01-13T09:00:57.891Z,78.93
2018-01-13T09:03:24.472Z,87.10
2018-01-13T09:05:51.290Z,87.72
2018-01-13T09:08:17.966Z,89.03
2018-01-13T09:10:44.547Z,89.78
2018-01-13T09:13:11.353Z,92.20
2018-01-13T09:15:38.034Z,94.95
2018-01-13T09:18:04.614Z,83.37
2018-01-13T09:20:31.190Z,95.10
2018-01-13T09:22:57.790Z,89.95
2018-01-13T09:25:24.384Z,73.87
2018-01-13T09:27:50.969Z,78.65
2018-01-13T09:30:17.570Z,86.68
2018-01-13T09:32:44.157Z,82.25
2018-01-13T09:35:10.731Z,85.50
2018-01-13T09:37:37.418Z,90.12
2018-01-13T09:40:04.003Z,92.20
2018-01-13T09:42:30.590Z,84.45
2018-01-13T09:44:57.184Z,82.40
2018-01-13T09:47:23.763Z,76.22
2018-01-13T09:49:50.343Z,80.78
2018-01-13T09:52:16.954Z,80.18
2018-01-13T09:54:43.516Z,76.53
2018-01-13T09:57:10.099Z,77.70
2018-01-13T09:59:36.708Z,81.60
2018-01-13T10:02:03.287Z,73.45
2018-01-13T10:04:29.871Z,78.87
2018-01-13T10:06:56.462Z,72.50
2018-01-13T10:09:23.042Z,83.10
2018-01-13T10:11:49.622Z,72.75
2018-01-13T10:14:17.062Z,76.72
2018-01-13T10:16:43.639Z,78.80
2018-01-13T10:19:10.224Z,69.62
2018-01-13T10:21:36.807Z,76.97
2018-01-13T10:24:03.392Z,87.68
2018-01-13T10:26:29.967Z,95.80
2018-01-13T10:28:56.557Z,80.18
2018-01-13T10:31:23.143Z,78.03
2018-01-13T10:33:49.725Z,81.57
2018-01-13T10:36:16.306Z,79.07
2018-01-13T10:38:43.126Z,88.12
2018-01-13T10:41:09.727Z,69.50
2018-01-13T10:43:36.307Z,90.38
2018-01-13T10:46:02.883Z,85.57
2018-01-13T10:48:29.666Z,79.15
2018-01-13T10:50:56.247Z,86.20
2018-01-13T10:53:22.822Z,87.18
2018-01-13T10:55:49.699Z,76.18
2018-01-13T10:58:16.269Z,92.22
2018-01-13T11:00:42.852Z,82.80
2018-01-13T11:03:09.461Z,93.40
2018-01-13T11:05:36.040Z,84.37
2018-01-13T11:08:02.623Z,89.18
2018-01-13T11:10:29.242Z,90.75
2018-01-13T11:12:55.817Z,82.93
2018-01-13T11:15:22.397Z,81.45
2018-01-13T11:17:49.306Z,85.10
2018-01-13T11:20:15.878Z,78.82
2018-01-13T11:22:42.459Z,78.22
2018-01-13T11:25:09.067Z,100.00
2018-01-13T11:27:35.652Z,92.93
2018-01-13T11:30:02.232Z,90.25
2018-01-13T11:32:28.835Z,85.57
2018-01-13T11:34:55.406Z,94.20
2018-01-13T11:37:22.007Z,80.60
2018-01-13T11:39:48.591Z,88.00
2018-01-13T11:42:15.175Z,104.75
2018-01-13T11:44:41.755Z,84.28
2018-01-13T11:47:08.339Z,86.00
2018-01-13T11:49:34.915Z,99.57
2018-01-13T11:52:01.822Z,85.18
2018-01-13T11:54:28.391Z,83.43
2018-01-13T11:56:54.968Z,85.12
2018-01-13T11:59:21.674Z,76.47
2018-01-13T12:01:48.312Z,92.95
2018-01-13T12:04:14.843Z,78.37
2018-01-13T12:06:41.433Z,94.53
2018-01-13T12:09:08.013Z,82.32
2018-01-13T12:11:34.586Z,82.00
2018-01-13T12:14:01.294Z,92.95
2018-01-13T12:16:27.867Z,75.53
2018-01-13T12:18:54.454Z,86.47
2018-01-13T12:21:21.064Z,83.10
2018-01-13T12:23:47.647Z,92.53
2018-01-13T12:26:14.231Z,93.35
2018-01-13T12:28:40.819Z,87.53
2018-01-13T12:31:07.398Z,86.28
2018-01-13T12:33:33.978Z,82.97
2018-01-13T12:36:00.575Z,93.30
2018-01-13T12:38:27.155Z,81.47
2018-01-13T12:40:53.739Z,84.22
2018-01-13T12:43:20.642Z,83.53
2018-01-13T12:45:47.227Z,91.85
2018-01-13T12:48:13.806Z,81.35
2018-01-13T12:50:40.393Z,93.65
2018-01-13T12:53:06.979Z,83.07
2018-01-13T12:55:33.566Z,88.60
2018-01-13T12:58:00.146Z,83.32
2018-01-13T13:00:26.731Z,85.68
2018-01-13T13:02:53.347Z,88.15
2018-01-13T13:05:19.922Z,75.12
2018-01-13T13:07:46.505Z,84.85
2018-01-13T13:10:13.115Z,83.07
2018-01-13T13:12:39.694Z,96.37
2018-01-13T13:15:06.271Z,76.32
2018-01-13T13:17:33.240Z,80.65
2018-01-13T13:19:59.819Z,83.35
2018-01-13T13:22:26.399Z,74.12
2018-01-13T13:24:53.346Z,68.60
2018-01-13T13:27:19.922Z,73.28
2018-01-13T13:29:46.499Z,78.00
2018-01-13T13:32:13.089Z,77.32
2018-01-13T13:34:39.667Z,78.07
2018-01-13T13:37:06.242Z,74.40
2018-01-13T13:39:32.837Z,75.28
2018-01-13T13:41:59.417Z,81.55
2018-01-13T13:44:25.994Z,68.40
2018-01-13T13:46:52.607Z,69.03
2018-01-13T13:49:19.205Z,68.87
2018-01-13T13:51:45.776Z,70.05
2018-01-13T13:54:12.389Z,73.72
2018-01-13T13:56:38.983Z,71.35
2018-01-13T13:59:05.567Z,65.97
2018-01-13T14:01:32.184Z,70.05
2018-01-13T14:03:58.759Z,61.40
2018-01-13T14:06:25.338Z,67.45
2018-01-13T14:08:51.930Z,64.00
2018-01-13T14:11:18.506Z,59.13
2018-01-13T14:13:45.094Z,76.55
2018-01-13T14:16:11.714Z,59.33
2018-01-13T14:18:38.286Z,60.30
2018-01-13T14:21:04.873Z,58.67
2018-01-13T14:23:31.462Z,58.83
2018-01-13T14:25:58.077Z,51.65
2018-01-13T14:28:24.654Z,53.30
2018-01-13T14:30:51.253Z,53.28
2018-01-13T14:33:18.152Z,52.22
2018-01-13T14:35:44.748Z,53.78
2018-01-13T14:38:11.335Z,56.47
2018-01-13T14:40:37.917Z,50.60
2018-01-13T14:43:04.493Z,52.05
2018-01-13T14:45:31.086Z,52.47
2018-01-13T14:47:57.658Z,57.17
2018-01-13T14:50:24.277Z,56.13
2018-01-13T14:52:50.983Z,51.83
2018-01-13T14:55:17.558Z,56.03
2018-01-13T14:57:44.144Z,47.92
2018-01-13T15:00:11.025Z,52.75
2018-01-13T15:02:37.605Z,51.05
2018-01-13T15:05:04.183Z,55.75
2018-01-13T15:07:30.786Z,49.58
2018-01-13T15:09:57.398Z,53.08
2018-01-13T15:12:23.986Z,46.20
2018-01-13T15:14:50.559Z,45.35
2018-01-13T15:17:17.268Z,50.70
2018-01-13T15:19:43.893Z,47.33
2018-01-13T15:22:10.422Z,43.22
2018-01-13T15:24:37.019Z,45.53
2018-01-13T15:27:03.603Z,47.53
2018-01-13T15:29:30.195Z,40.45
2018-01-13T15:31:56.798Z,41.08
2018-01-13T15:34:23.374Z,41.30
2018-01-13T15:36:49.955Z,38.15
2018-01-13T15:39:16.546Z,42.03
2018-01-13T15:41:43.130Z,42.65
2018-01-13T15:44:09.715Z,40.12
2018-01-13T15:46:36.395Z,39.10
2018-01-13T15:49:02.974Z,40.47
2018-01-13T15:51:29.567Z,38.33
2018-01-13T15:53:56.438Z,41.17
2018-01-13T15:56:23.722Z,38.88
2018-01-13T15:58:50.618Z,41.28
2018-01-13T16:01:17.219Z,37.85
2018-01-13T16:03:43.796Z,41.33
2018-01-13T16:06:10.369Z,41.80
2018-01-13T16:08:36.990Z,38.85
2018-01-13T16:11:03.603Z,40.63
2018-01-13T16:13:30.188Z,42.17
2018-01-13T16:15:56.773Z,36.97
2018-01-13T16:18:23.373Z,37.90
2018-01-13T16:20:49.947Z,42.65
2018-01-13T16:23:16.526Z,36.97
2018-01-13T16:25:43.386Z,36.50
2018-01-13T16:28:09.966Z,34.10
2018-01-13T16:30:36.545Z,34.90
2018-01-13T16:33:03.351Z,37.83
2018-01-13T16:35:29.934Z,35.75
2018-01-13T16:37:56.515Z,38.40
2018-01-13T16:40:23.133Z,35.15
2018-01-13T16:42:49.703Z,37.63
2018-01-13T16:45:16.375Z,36.83
2018-01-13T16:47:42.995Z,35.17
2018-01-13T16:50:09.574Z,30.67
2018-01-13T16:52:36.148Z,33.70
2018-01-13T16:55:02.740Z,33.58
2018-01-13T16:57:29.326Z,38.00
2018-01-13T16:59:55.902Z,36.08
2018-01-13T17:02:22.714Z,32.53
2018-01-13T17:04:49.296Z,34.75
2018-01-13T17:07:15.879Z,42.20
2018-01-13T17:09:42.726Z,38.03
2018-01-13T17:12:09.315Z,31.00
2018-01-13T17:14:35.914Z,33.55
2018-01-13T17:17:02.843Z,32.78
2018-01-13T17:19:29.423Z,33.30
2018-01-13T17:21:56.005Z,37.28
2018-01-13T17:24:22.699Z,30.33
2018-01-13T17:26:49.291Z,35.92
2018-01-13T17:29:15.894Z,37.00
2018-01-13T17:31:42.463Z,38.20
2018-01-13T17:34:09.034Z,34.78
2018-01-13T17:36:35.619Z,31.80
2018-01-13T17:39:02.198Z,35.25
2018-01-13T17:41:28.787Z,36.85
2018-01-13T17:43:55.362Z,41.67
2018-01-13T17:46:21.955Z,31.17
2018-01-13T17:48:48.543Z,30.52
2018-01-13T17:51:15.118Z,29.67
2018-01-13T17:53:41.705Z,31.87
2018-01-13T17:56:08.286Z,35.97
2018-01-13T17:58:34.874Z,31.90
2018-01-13T18:01:01.491Z,32.72
2018-01-13T18:03:28.067Z,30.58
2018-01-13T18:05:54.639Z,31.55
2018-01-13T18:08:21.230Z,28.40
2018-01-13T18:10:47.805Z,29.98
2018-01-13T18:13:14.383Z,26.48
2018-01-13T18:15:40.987Z,35.17
2018-01-13T18:18:08.031Z,32.47
2018-01-13T18:20:34.583Z,33.03
2018-01-13T18:23:01.171Z,31.02
2018-01-13T18:25:27.778Z,29.15
2018-01-13T18:27:54.354Z,33.78
2018-01-13T18:30:20.944Z,33.75
2018-01-13T18:32:47.830Z,28.38
2018-01-13T18:35:14.413Z,34.38
2018-01-13T18:37:40.990Z,32.40
2018-01-13T18:40:07.951Z,32.15
2018-01-13T18:42:34.526Z,36.33
2018-01-13T18:45:01.112Z,32.65
2018-01-13T18:47:27.979Z,30.83
2018-01-13T18:49:54.547Z,28.87
2018-01-13T18:52:21.127Z,30.90
2018-01-13T18:54:47.746Z,31.65
2018-01-13T18:57:14.327Z,32.90
2018-01-13T18:59:40.898Z,31.80
2018-01-13T19:02:07.517Z,30.92
2018-01-13T19:04:34.088Z,27.33
2018-01-13T19:07:00.670Z,30.37
2018-01-13T19:09:27.266Z,32.17
2018-01-13T19:11:53.846Z,33.60
2018-01-13T19:14:20.425Z,35.38
2018-01-13T19:16:47.007Z,37.38
2018-01-13T19:19:13.579Z,34.40
2018-01-13T19:21:40.187Z,34.58
2018-01-13T19:24:06.778Z,35.97
2018-01-13T19:26:33.358Z,34.67
2018-01-13T19:28:59.950Z,28.42
2018-01-13T19:31:26.530Z,37.15
2018-01-13T19:33:53.102Z,30.33
2018-01-13T19:36:19.711Z,31.33
2018-01-13T19:38:46.286Z,28.08
2018-01-13T19:41:12.862Z,35.92
2018-01-13T19:43:39.442Z,34.58
2018-01-13T19:46:06.046Z,29.42
2018-01-13T19:48:32.633Z,35.30
2018-01-13T19:50:59.208Z,30.15
2018-01-13T19:53:25.799Z,29.60
2018-01-13T19:55:52.379Z,32.03
2018-01-13T19:58:18.956Z,27.70
2018-01-13T20:00:45.532Z,30.67
2018-01-13T20:03:12.131Z,27.25
2018-01-13T20:05:38.702Z,32.15
2018-01-13T20:08:05.288Z,31.20
2018-01-13T20:10:31.874Z,28.10
2018-01-13T20:12:58.459Z,30.20
2018-01-13T20:15:25.032Z,27.05
2018-01-13T20:17:51.646Z,27.33
2018-01-13T20:20:18.230Z,35.65
2018-01-13T20:22:44.799Z,29.25
2018-01-13T20:25:11.507Z,30.95
2018-01-13T20:27:38.084Z,30.08
2018-01-13T20:30:04.661Z,28.80
2018-01-13T20:32:31.236Z,30.48
2018-01-13T20:34:57.807Z,31.48
2018-01-13T20:37:24.408Z,28.38
2018-01-13T20:39:50.991Z,26.58
2018-01-13T20:42:17.566Z,28.15
2018-01-13T20:44:44.277Z,30.42
2018-01-13T20:47:10.849Z,29.70
2018-01-13T20:49:37.423Z,28.83
2018-01-13T20:52:04.018Z,28.73
2018-01-13T20:54:30.599Z,25.88
2018-01-13T20:56:58.007Z,25.85
2018-01-13T20:59:24.972Z,22.45
2018-01-13T21:01:51.589Z,23.70
2018-01-13T21:04:18.143Z,23.55
2018-01-13T21:06:44.742Z,23.58
2018-01-13T21:09:11.322Z,21.83
2018-01-13T21:11:37.898Z,24.23
2018-01-13T21:14:04.505Z,34.33
2018-01-13T21:16:31.082Z,19.00
2018-01-13T21:18:57.654Z,24.15
2018-01-13T21:21:24.271Z,21.10
2018-01-13T21:23:50.847Z,19.83
2018-01-13T21:26:17.434Z,27.95
2018-01-13T21:28:44.016Z,20.65
2018-01-13T21:31:10.600Z,21.00
2018-01-13T21:33:37.254Z,22.58
2018-01-13T21:36:03.835Z,19.90
2018-01-13T21:38:30.427Z,23.75
2018-01-13T21:40:57.042Z,16.77
2018-01-13T21:43:23.619Z,20.58
2018-01-13T21:45:50.198Z,21.33
2018-01-13T21:48:16.895Z,17.33
2018-01-13T21:50:43.473Z,18.98
2018-01-13T21:53:10.054Z,20.45
2018-01-13T21:55:36.643Z,19.08
2018-01-13T21:58:03.225Z,19.20
2018-01-13T22:00:29.799Z,22.77
2018-01-13T22:02:56.404Z,20.98
2018-01-13T22:05:22.978Z,19.23
2018-01-13T22:07:49.567Z,19.08
2018-01-13T22:10:16.150Z,17.42
2018-01-13T22:12:43.019Z,20.10
2018-01-13T22:15:09.648Z,16.02
2018-01-13T22:17:36.223Z,20.77
2018-01-13T22:20:02.826Z,19.80
2018-01-13T22:22:29.403Z,20.37
2018-01-13T22:24:55.983Z,22.30
2018-01-13T22:27:22.591Z,18.60
2018-01-13T22:29:49.170Z,19.25
2018-01-13T22:32:15.754Z,19.12
2018-01-13T22:34:42.647Z,19.90
2018-01-13T22:37:09.251Z,18.45
2018-01-13T22:39:35.826Z,18.25
2018-01-13T22:42:02.433Z,18.20
2018-01-13T22:44:29.019Z,16.65
2018-01-13T22:46:55.600Z,14.82
2018-01-13T22:49:22.354Z,16.60
2018-01-13T22:51:48.956Z,16.70
2018-01-13T22:54:15.635Z,17.40
2018-01-13T22:56:42.230Z,17.10
2018-01-13T22:59:08.802Z,18.25
2018-01-13T23:01:35.378Z,22.87
2018-01-13T23:04:02.288Z,16.42
2018-01-13T23:06:28.862Z,17.98
2018-01-13T23:08:55.447Z,21.48
2018-01-13T23:13:55.035Z,16.00
2018-01-13T23:16:21.646Z,15.45
2018-01-13T23:18:48.227Z,17.65
2018-01-13T23:21:14.814Z,17.52
2018-01-13T23:23:41.664Z,17.62
2018-01-13T23:26:08.236Z,17.60
2018-01-13T23:28:34.815Z,20.55
2018-01-13T23:31:01.550Z,17.87
2018-01-13T23:33:28.137Z,20.62
2018-01-13T23:35:54.710Z,15.73
2018-01-13T23:38:21.631Z,18.87
2018-01-13T23:40:48.215Z,20.42
2018-01-13T23:43:14.787Z,18.98
2018-01-13T23:45:41.473Z,18.80
2018-01-13T23:48:08.051Z,16.02
2018-01-13T23:50:34.627Z,20.55
2018-01-13T23:53:01.551Z,20.25
2018-01-13T23:55:28.423Z,19.20
2018-01-13T23:57:54.981Z,17.33
